sensor_id;sensor_type;location;lat;lon;timestamp;temperature;humidity
14551;DHT22;7362;50.956;4.184;2022-08-03T00:01:38;23.60;99.90
14551;DHT22;7362;50.956;4.184;2022-08-03T00:04:07;23.60;99.90
14551;DHT22;7362;50.956;4.184;2022-08-03T00:06:36;23.50;99.90
14551;DHT22;7362;50.956;4.184;2022-08-03T00:09:03;23.50;99.90
14551;DHT22;7362;50.956;4.184;2022-08-03T00:11:29;23.50;99.90
14551;DHT22;7362;50.956;4.184;2022-08-03T00:13:55;23.40;99.90
14551;DHT22;7362;50.956;4.184;2022-08-03T00:16:23;23.40;99.90
14551;DHT22;7362;50.956;4.184;2022-08-03T00:18:52;23.30;99.90
14551;DHT22;7362;50.956;4.184;2022-08-03T00:21:18;23.30;99.90
14551;DHT22;7362;50.956;4.184;2022-08-03T00:23:45;23.30;99.90
14551;DHT22;7362;50.956;4.184;2022-08-03T00:26:10;23.30;99.90
14551;DHT22;7362;50.956;4.184;2022-08-03T00:28:36;23.20;99.90
14551;DHT22;7362;50.956;4.184;2022-08-03T00:31:02;23.20;99.90
14551;DHT22;7362;50.956;4.184;2022-08-03T00:33:32;23.20;99.90
14551;DHT22;7362;50.956;4.184;2022-08-03T00:36:03;23.20;99.90
14551;DHT22;7362;50.956;4.184;2022-08-03T00:38:31;23.20;99.90
14551;DHT22;7362;50.956;4.184;2022-08-03T00:40:59;23.10;99.90
14551;DHT22;7362;50.956;4.184;2022-08-03T00:43:25;23.10;99.90
14551;DHT22;7362;50.956;4.184;2022-08-03T00:45:53;23.00;99.90
14551;DHT22;7362;50.956;4.184;2022-08-03T00:48:22;23.00;99.90
14551;DHT22;7362;50.956;4.184;2022-08-03T00:50:50;22.90;99.90
14551;DHT22;7362;50.956;4.184;2022-08-03T00:53:17;22.80;99.90
14551;DHT22;7362;50.956;4.184;2022-08-03T00:55:49;22.80;99.90
14551;DHT22;7362;50.956;4.184;2022-08-03T00:58:15;22.70;99.90
14551;DHT22;7362;50.956;4.184;2022-08-03T01:00:45;22.70;99.90
14551;DHT22;7362;50.956;4.184;2022-08-03T01:03:11;22.70;99.90
14551;DHT22;7362;50.956;4.184;2022-08-03T01:08:31;22.60;99.90
14551;DHT22;7362;50.956;4.184;2022-08-03T01:16:08;22.40;99.90
14551;DHT22;7362;50.956;4.184;2022-08-03T01:18:43;22.30;99.90
14551;DHT22;7362;50.956;4.184;2022-08-03T01:21:17;22.30;99.90
14551;DHT22;7362;50.956;4.184;2022-08-03T01:24:06;22.30;99.90
14551;DHT22;7362;50.956;4.184;2022-08-03T01:26:54;22.30;99.90
14551;DHT22;7362;50.956;4.184;2022-08-03T01:32:21;22.10;99.90
14551;DHT22;7362;50.956;4.184;2022-08-03T01:34:54;22.20;99.90
14551;DHT22;7362;50.956;4.184;2022-08-03T01:37:47;22.20;99.90
14551;DHT22;7362;50.956;4.184;2022-08-03T01:40:21;22.20;99.90
14551;DHT22;7362;50.956;4.184;2022-08-03T01:42:49;22.10;99.90
14551;DHT22;7362;50.956;4.184;2022-08-03T01:45:17;22.10;99.90
14551;DHT22;7362;50.956;4.184;2022-08-03T01:47:45;22.10;99.90
14551;DHT22;7362;50.956;4.184;2022-08-03T01:50:14;22.10;99.90
14551;DHT22;7362;50.956;4.184;2022-08-03T01:52:41;22.10;99.90
14551;DHT22;7362;50.956;4.184;2022-08-03T01:55:11;22.10;99.90
14551;DHT22;7362;50.956;4.184;2022-08-03T01:57:39;22.10;99.90
14551;DHT22;7362;50.956;4.184;2022-08-03T02:00:11;22.10;99.90
14551;DHT22;7362;50.956;4.184;2022-08-03T02:02:39;22.00;99.90
14551;DHT22;7362;50.956;4.184;2022-08-03T02:05:08;22.00;99.90
14551;DHT22;7362;50.956;4.184;2022-08-03T02:07:39;22.00;99.90
14551;DHT22;7362;50.956;4.184;2022-08-03T02:10:06;22.00;99.90
14551;DHT22;7362;50.956;4.184;2022-08-03T02:12:33;22.00;99.90
14551;DHT22;7362;50.956;4.184;2022-08-03T02:15:01;22.00;99.90
14551;DHT22;7362;50.956;4.184;2022-08-03T02:17:28;21.70;99.90
14551;DHT22;7362;50.956;4.184;2022-08-03T02:19:58;21.90;99.90
14551;DHT22;7362;50.956;4.184;2022-08-03T02:22:25;21.80;99.90
14551;DHT22;7362;50.956;4.184;2022-08-03T02:24:52;21.90;99.90
14551;DHT22;7362;50.956;4.184;2022-08-03T02:27:23;21.90;99.90
14551;DHT22;7362;50.956;4.184;2022-08-03T02:30:02;21.90;99.90
14551;DHT22;7362;50.956;4.184;2022-08-03T02:32:31;21.90;99.90
14551;DHT22;7362;50.956;4.184;2022-08-03T02:34:59;21.90;99.90
14551;DHT22;7362;50.956;4.184;2022-08-03T02:37:30;22.00;99.90
14551;DHT22;7362;50.956;4.184;2022-08-03T02:40:03;22.00;99.90
14551;DHT22;7362;50.956;4.184;2022-08-03T02:42:32;21.90;99.90
14551;DHT22;7362;50.956;4.184;2022-08-03T02:45:03;21.90;99.90
14551;DHT22;7362;50.956;4.184;2022-08-03T02:47:31;21.90;99.90
14551;DHT22;7362;50.956;4.184;2022-08-03T02:50:01;21.80;99.90
14551;DHT22;7362;50.956;4.184;2022-08-03T02:52:29;21.80;99.90
14551;DHT22;7362;50.956;4.184;2022-08-03T02:54:58;21.70;99.90
14551;DHT22;7362;50.956;4.184;2022-08-03T02:57:27;21.70;99.90
14551;DHT22;7362;50.956;4.184;2022-08-03T02:59:54;21.70;99.90
14551;DHT22;7362;50.956;4.184;2022-08-03T03:02:21;21.70;99.90
14551;DHT22;7362;50.956;4.184;2022-08-03T03:04:50;21.70;99.90
14551;DHT22;7362;50.956;4.184;2022-08-03T03:07:17;21.60;99.90
14551;DHT22;7362;50.956;4.184;2022-08-03T03:09:43;21.60;99.90
14551;DHT22;7362;50.956;4.184;2022-08-03T03:12:11;21.50;99.90
14551;DHT22;7362;50.956;4.184;2022-08-03T03:14:37;21.60;99.90
14551;DHT22;7362;50.956;4.184;2022-08-03T03:17:05;21.50;99.90
14551;DHT22;7362;50.956;4.184;2022-08-03T03:19:32;21.50;99.90
14551;DHT22;7362;50.956;4.184;2022-08-03T03:22:00;21.60;99.90
14551;DHT22;7362;50.956;4.184;2022-08-03T03:24:28;21.50;99.90
14551;DHT22;7362;50.956;4.184;2022-08-03T03:26:55;21.50;99.90
14551;DHT22;7362;50.956;4.184;2022-08-03T03:29:21;21.50;99.90
14551;DHT22;7362;50.956;4.184;2022-08-03T03:31:47;21.40;99.90
14551;DHT22;7362;50.956;4.184;2022-08-03T03:34:13;21.40;99.90
14551;DHT22;7362;50.956;4.184;2022-08-03T03:36:39;21.40;99.90
14551;DHT22;7362;50.956;4.184;2022-08-03T03:39:05;21.50;99.90
14551;DHT22;7362;50.956;4.184;2022-08-03T03:41:31;21.40;99.90
14551;DHT22;7362;50.956;4.184;2022-08-03T03:43:57;21.40;99.90
14551;DHT22;7362;50.956;4.184;2022-08-03T03:46:23;21.40;99.90
14551;DHT22;7362;50.956;4.184;2022-08-03T03:48:49;21.50;99.90
14551;DHT22;7362;50.956;4.184;2022-08-03T03:51:16;21.50;99.90
14551;DHT22;7362;50.956;4.184;2022-08-03T03:53:58;21.50;99.90
14551;DHT22;7362;50.956;4.184;2022-08-03T03:56:25;21.60;99.90
14551;DHT22;7362;50.956;4.184;2022-08-03T03:58:51;21.60;99.90
14551;DHT22;7362;50.956;4.184;2022-08-03T04:01:17;21.70;99.90
14551;DHT22;7362;50.956;4.184;2022-08-03T04:03:43;21.60;99.90
14551;DHT22;7362;50.956;4.184;2022-08-03T04:06:09;21.70;99.90
14551;DHT22;7362;50.956;4.184;2022-08-03T04:08:53;21.60;99.90
14551;DHT22;7362;50.956;4.184;2022-08-03T04:11:33;21.70;99.90
14551;DHT22;7362;50.956;4.184;2022-08-03T04:14:12;21.60;99.90
14551;DHT22;7362;50.956;4.184;2022-08-03T04:16:43;21.50;99.90
14551;DHT22;7362;50.956;4.184;2022-08-03T04:19:14;21.50;99.90
14551;DHT22;7362;50.956;4.184;2022-08-03T04:21:43;21.40;99.90
14551;DHT22;7362;50.956;4.184;2022-08-03T04:24:12;21.40;99.90
14551;DHT22;7362;50.956;4.184;2022-08-03T04:26:41;21.40;99.90
14551;DHT22;7362;50.956;4.184;2022-08-03T04:29:09;21.50;99.90
14551;DHT22;7362;50.956;4.184;2022-08-03T04:31:37;21.40;99.90
14551;DHT22;7362;50.956;4.184;2022-08-03T04:34:04;21.40;99.90
14551;DHT22;7362;50.956;4.184;2022-08-03T04:36:32;21.40;99.90
14551;DHT22;7362;50.956;4.184;2022-08-03T04:39:02;21.40;99.90
14551;DHT22;7362;50.956;4.184;2022-08-03T04:41:29;21.50;99.90
14551;DHT22;7362;50.956;4.184;2022-08-03T04:43:58;21.60;99.90
14551;DHT22;7362;50.956;4.184;2022-08-03T04:46:31;21.60;99.90
14551;DHT22;7362;50.956;4.184;2022-08-03T04:49:01;21.80;99.90
14551;DHT22;7362;50.956;4.184;2022-08-03T04:51:28;22.10;99.90
14551;DHT22;7362;50.956;4.184;2022-08-03T04:53:54;22.60;99.90
14551;DHT22;7362;50.956;4.184;2022-08-03T04:56:21;23.10;99.90
14551;DHT22;7362;50.956;4.184;2022-08-03T04:58:47;23.40;99.90
14551;DHT22;7362;50.956;4.184;2022-08-03T05:01:13;23.70;99.90
14551;DHT22;7362;50.956;4.184;2022-08-03T05:03:39;23.60;99.90
14551;DHT22;7362;50.956;4.184;2022-08-03T05:06:07;23.30;99.90
14551;DHT22;7362;50.956;4.184;2022-08-03T05:08:38;22.70;99.90
14551;DHT22;7362;50.956;4.184;2022-08-03T05:11:03;22.50;99.90
14551;DHT22;7362;50.956;4.184;2022-08-03T05:13:29;22.40;99.90
14551;DHT22;7362;50.956;4.184;2022-08-03T05:15:55;22.40;99.90
14551;DHT22;7362;50.956;4.184;2022-08-03T05:18:21;22.30;99.90
14551;DHT22;7362;50.956;4.184;2022-08-03T05:20:48;22.30;99.90
14551;DHT22;7362;50.956;4.184;2022-08-03T05:23:14;22.60;99.90
14551;DHT22;7362;50.956;4.184;2022-08-03T05:25:40;23.10;99.90
14551;DHT22;7362;50.956;4.184;2022-08-03T05:28:06;23.80;99.90
14551;DHT22;7362;50.956;4.184;2022-08-03T05:30:32;24.40;99.90
14551;DHT22;7362;50.956;4.184;2022-08-03T05:32:57;24.90;99.90
14551;DHT22;7362;50.956;4.184;2022-08-03T05:35:25;24.70;99.90
14551;DHT22;7362;50.956;4.184;2022-08-03T05:37:54;24.20;99.90
14551;DHT22;7362;50.956;4.184;2022-08-03T05:40:19;23.80;99.90
14551;DHT22;7362;50.956;4.184;2022-08-03T05:42:45;23.50;99.90
14551;DHT22;7362;50.956;4.184;2022-08-03T05:45:11;23.10;99.90
14551;DHT22;7362;50.956;4.184;2022-08-03T05:47:42;23.40;99.90
14551;DHT22;7362;50.956;4.184;2022-08-03T05:50:13;24.40;99.90
14551;DHT22;7362;50.956;4.184;2022-08-03T05:52:39;25.50;99.90
14551;DHT22;7362;50.956;4.184;2022-08-03T05:55:06;26.70;99.90
14551;DHT22;7362;50.956;4.184;2022-08-03T05:57:32;27.40;99.90
14551;DHT22;7362;50.956;4.184;2022-08-03T05:59:58;26.80;99.90
14551;DHT22;7362;50.956;4.184;2022-08-03T06:02:25;25.70;99.90
14551;DHT22;7362;50.956;4.184;2022-08-03T06:04:51;25.00;99.90
14551;DHT22;7362;50.956;4.184;2022-08-03T06:07:16;24.40;99.90
14551;DHT22;7362;50.956;4.184;2022-08-03T06:09:44;23.80;99.90
14551;DHT22;7362;50.956;4.184;2022-08-03T06:12:13;23.30;99.90
14551;DHT22;7362;50.956;4.184;2022-08-03T06:14:41;23.00;99.90
14551;DHT22;7362;50.956;4.184;2022-08-03T06:17:12;22.80;99.90
14551;DHT22;7362;50.956;4.184;2022-08-03T06:19:38;22.70;99.90
14551;DHT22;7362;50.956;4.184;2022-08-03T06:22:04;22.70;99.90
14551;DHT22;7362;50.956;4.184;2022-08-03T06:24:30;22.70;99.90
14551;DHT22;7362;50.956;4.184;2022-08-03T06:26:57;22.80;99.90
14551;DHT22;7362;50.956;4.184;2022-08-03T06:29:23;22.70;99.90
14551;DHT22;7362;50.956;4.184;2022-08-03T06:31:50;22.80;99.90
14551;DHT22;7362;50.956;4.184;2022-08-03T06:34:16;22.80;99.90
14551;DHT22;7362;50.956;4.184;2022-08-03T06:36:42;22.80;99.90
14551;DHT22;7362;50.956;4.184;2022-08-03T06:39:08;22.90;99.90
14551;DHT22;7362;50.956;4.184;2022-08-03T06:41:52;22.90;99.90
14551;DHT22;7362;50.956;4.184;2022-08-03T06:44:18;23.00;99.90
14551;DHT22;7362;50.956;4.184;2022-08-03T06:46:49;22.90;99.90
14551;DHT22;7362;50.956;4.184;2022-08-03T06:49:31;22.90;99.90
14551;DHT22;7362;50.956;4.184;2022-08-03T06:52:00;23.10;99.90
14551;DHT22;7362;50.956;4.184;2022-08-03T06:54:26;23.00;99.90
14551;DHT22;7362;50.956;4.184;2022-08-03T06:56:56;23.10;99.90
14551;DHT22;7362;50.956;4.184;2022-08-03T06:59:24;23.10;99.90
14551;DHT22;7362;50.956;4.184;2022-08-03T07:01:51;23.10;99.90
14551;DHT22;7362;50.956;4.184;2022-08-03T07:04:17;23.10;99.90
14551;DHT22;7362;50.956;4.184;2022-08-03T07:06:43;23.20;99.90
14551;DHT22;7362;50.956;4.184;2022-08-03T07:09:11;23.10;99.90
14551;DHT22;7362;50.956;4.184;2022-08-03T07:11:37;23.10;99.90
14551;DHT22;7362;50.956;4.184;2022-08-03T07:14:03;23.10;99.90
14551;DHT22;7362;50.956;4.184;2022-08-03T07:16:29;23.20;99.90
14551;DHT22;7362;50.956;4.184;2022-08-03T07:18:55;23.30;99.90
14551;DHT22;7362;50.956;4.184;2022-08-03T07:21:21;23.50;99.90
14551;DHT22;7362;50.956;4.184;2022-08-03T07:23:47;23.60;99.90
14551;DHT22;7362;50.956;4.184;2022-08-03T07:26:14;23.70;99.90
14551;DHT22;7362;50.956;4.184;2022-08-03T07:28:40;23.70;99.90
14551;DHT22;7362;50.956;4.184;2022-08-03T07:31:07;23.70;99.90
14551;DHT22;7362;50.956;4.184;2022-08-03T07:33:33;23.80;99.90
14551;DHT22;7362;50.956;4.184;2022-08-03T07:35:59;24.00;99.90
14551;DHT22;7362;50.956;4.184;2022-08-03T07:38:24;23.90;99.90
14551;DHT22;7362;50.956;4.184;2022-08-03T07:40:50;24.00;99.90
14551;DHT22;7362;50.956;4.184;2022-08-03T07:43:16;24.00;99.90
14551;DHT22;7362;50.956;4.184;2022-08-03T07:45:43;24.00;99.90
14551;DHT22;7362;50.956;4.184;2022-08-03T07:48:09;24.10;99.90
14551;DHT22;7362;50.956;4.184;2022-08-03T07:50:34;24.30;99.90
14551;DHT22;7362;50.956;4.184;2022-08-03T07:53:00;25.00;99.90
14551;DHT22;7362;50.956;4.184;2022-08-03T07:55:26;26.20;99.90
14551;DHT22;7362;50.956;4.184;2022-08-03T08:00:32;28.80;99.90
14551;DHT22;7362;50.956;4.184;2022-08-03T08:02:59;29.60;99.90
14551;DHT22;7362;50.956;4.184;2022-08-03T08:05:26;30.30;99.90
14551;DHT22;7362;50.956;4.184;2022-08-03T08:07:53;31.40;99.90
14551;DHT22;7362;50.956;4.184;2022-08-03T08:10:20;32.10;99.90
14551;DHT22;7362;50.956;4.184;2022-08-03T08:12:47;32.00;99.90
14551;DHT22;7362;50.956;4.184;2022-08-03T08:15:13;32.90;99.90
14551;DHT22;7362;50.956;4.184;2022-08-03T08:17:44;34.90;99.90
14551;DHT22;7362;50.956;4.184;2022-08-03T08:20:16;35.50;99.90
14551;DHT22;7362;50.956;4.184;2022-08-03T08:22:42;35.60;99.90
14551;DHT22;7362;50.956;4.184;2022-08-03T08:25:09;35.50;99.50
14551;DHT22;7362;50.956;4.184;2022-08-03T08:27:48;35.30;98.80
14551;DHT22;7362;50.956;4.184;2022-08-03T08:30:16;34.80;99.40
14551;DHT22;7362;50.956;4.184;2022-08-03T08:32:43;35.50;97.80
14551;DHT22;7362;50.956;4.184;2022-08-03T08:35:10;35.70;97.00
14551;DHT22;7362;50.956;4.184;2022-08-03T08:37:37;35.40;96.40
14551;DHT22;7362;50.956;4.184;2022-08-03T08:40:05;36.30;95.90
14551;DHT22;7362;50.956;4.184;2022-08-03T08:42:31;38.00;93.30
14551;DHT22;7362;50.956;4.184;2022-08-03T08:45:01;39.70;91.20
14551;DHT22;7362;50.956;4.184;2022-08-03T08:47:30;40.50;86.70
14551;DHT22;7362;50.956;4.184;2022-08-03T08:49:58;39.40;85.60
14551;DHT22;7362;50.956;4.184;2022-08-03T08:52:29;38.10;87.50
14551;DHT22;7362;50.956;4.184;2022-08-03T08:55:00;38.70;86.90
14551;DHT22;7362;50.956;4.184;2022-08-03T08:57:41;39.20;84.60
14551;DHT22;7362;50.956;4.184;2022-08-03T09:00:10;39.90;81.80
14551;DHT22;7362;50.956;4.184;2022-08-03T09:02:40;40.40;79.20
14551;DHT22;7362;50.956;4.184;2022-08-03T09:05:21;41.40;75.90
14551;DHT22;7362;50.956;4.184;2022-08-03T09:07:47;40.60;74.40
14551;DHT22;7362;50.956;4.184;2022-08-03T09:10:16;41.10;74.20
14551;DHT22;7362;50.956;4.184;2022-08-03T09:12:52;40.30;74.40
14551;DHT22;7362;50.956;4.184;2022-08-03T09:17:58;40.50;74.60
14551;DHT22;7362;50.956;4.184;2022-08-03T09:27:11;38.00;76.60
14551;DHT22;7362;50.956;4.184;2022-08-03T09:29:38;38.90;75.80
14551;DHT22;7362;50.956;4.184;2022-08-03T09:32:04;40.00;72.70
14551;DHT22;7362;50.956;4.184;2022-08-03T09:34:30;41.40;70.30
14551;DHT22;7362;50.956;4.184;2022-08-03T09:36:56;40.20;71.80
14551;DHT22;7362;50.956;4.184;2022-08-03T09:39:25;40.70;71.10
14551;DHT22;7362;50.956;4.184;2022-08-03T09:42:15;41.10;70.30
14551;DHT22;7362;50.956;4.184;2022-08-03T09:44:49;42.40;68.30
14551;DHT22;7362;50.956;4.184;2022-08-03T09:47:30;43.20;65.80
14551;DHT22;7362;50.956;4.184;2022-08-03T09:50:01;41.70;66.40
14551;DHT22;7362;50.956;4.184;2022-08-03T09:52:38;41.40;66.90
14551;DHT22;7362;50.956;4.184;2022-08-03T09:55:11;41.60;65.90
14551;DHT22;7362;50.956;4.184;2022-08-03T09:57:37;41.60;66.00
14551;DHT22;7362;50.956;4.184;2022-08-03T10:00:13;42.20;64.70
14551;DHT22;7362;50.956;4.184;2022-08-03T10:02:43;43.80;62.70
14551;DHT22;7362;50.956;4.184;2022-08-03T10:05:11;44.70;60.90
14551;DHT22;7362;50.956;4.184;2022-08-03T10:07:48;45.00;59.50
14551;DHT22;7362;50.956;4.184;2022-08-03T10:10:15;44.00;59.80
14551;DHT22;7362;50.956;4.184;2022-08-03T10:12:42;43.20;61.20
14551;DHT22;7362;50.956;4.184;2022-08-03T10:15:09;43.50;61.00
14551;DHT22;7362;50.956;4.184;2022-08-03T10:17:36;43.90;59.80
14551;DHT22;7362;50.956;4.184;2022-08-03T10:20:04;44.20;60.00
14551;DHT22;7362;50.956;4.184;2022-08-03T10:22:35;44.60;58.40
14551;DHT22;7362;50.956;4.184;2022-08-03T10:25:11;44.20;57.90
14551;DHT22;7362;50.956;4.184;2022-08-03T10:27:39;44.90;57.60
14551;DHT22;7362;50.956;4.184;2022-08-03T10:30:10;44.80;56.60
14551;DHT22;7362;50.956;4.184;2022-08-03T10:32:54;44.10;58.10
14551;DHT22;7362;50.956;4.184;2022-08-03T10:35:23;43.20;57.60
14551;DHT22;7362;50.956;4.184;2022-08-03T10:38:07;43.80;58.80
14551;DHT22;7362;50.956;4.184;2022-08-03T10:40:35;44.50;57.90
14551;DHT22;7362;50.956;4.184;2022-08-03T10:43:18;44.70;56.90
14551;DHT22;7362;50.956;4.184;2022-08-03T10:45:45;43.70;57.40
14551;DHT22;7362;50.956;4.184;2022-08-03T10:48:12;43.00;57.60
14551;DHT22;7362;50.956;4.184;2022-08-03T10:50:41;42.50;58.30
14551;DHT22;7362;50.956;4.184;2022-08-03T10:53:07;43.20;58.30
14551;DHT22;7362;50.956;4.184;2022-08-03T10:55:46;43.50;57.80
14551;DHT22;7362;50.956;4.184;2022-08-03T11:01:04;44.20;56.60
14551;DHT22;7362;50.956;4.184;2022-08-03T11:03:30;41.30;59.70
14551;DHT22;7362;50.956;4.184;2022-08-03T11:06:16;41.10;60.00
14551;DHT22;7362;50.956;4.184;2022-08-03T11:08:47;42.40;58.60
14551;DHT22;7362;50.956;4.184;2022-08-03T11:14:02;42.70;57.10
14551;DHT22;7362;50.956;4.184;2022-08-03T11:16:36;41.30;58.90
14551;DHT22;7362;50.956;4.184;2022-08-03T11:19:09;41.40;59.70
14551;DHT22;7362;50.956;4.184;2022-08-03T11:27:19;43.70;55.80
14551;DHT22;7362;50.956;4.184;2022-08-03T11:30:09;43.20;56.70
14551;DHT22;7362;50.956;4.184;2022-08-03T11:40:42;42.50;57.20
14551;DHT22;7362;50.956;4.184;2022-08-03T11:46:08;43.00;56.00
14551;DHT22;7362;50.956;4.184;2022-08-03T11:48:45;42.20;57.00
14551;DHT22;7362;50.956;4.184;2022-08-03T11:51:23;41.80;57.00
14551;DHT22;7362;50.956;4.184;2022-08-03T11:54:00;43.20;56.30
14551;DHT22;7362;50.956;4.184;2022-08-03T11:56:49;42.80;55.80
14551;DHT22;7362;50.956;4.184;2022-08-03T11:59:16;42.30;56.20
14551;DHT22;7362;50.956;4.184;2022-08-03T12:01:44;41.50;56.90
14551;DHT22;7362;50.956;4.184;2022-08-03T12:04:10;41.90;56.50
14551;DHT22;7362;50.956;4.184;2022-08-03T12:06:37;42.40;56.40
14551;DHT22;7362;50.956;4.184;2022-08-03T12:09:19;42.10;55.50
14551;DHT22;7362;50.956;4.184;2022-08-03T12:11:49;42.00;56.50
14551;DHT22;7362;50.956;4.184;2022-08-03T12:14:16;42.50;56.00
14551;DHT22;7362;50.956;4.184;2022-08-03T12:16:48;42.40;55.90
14551;DHT22;7362;50.956;4.184;2022-08-03T12:19:15;42.60;55.40
14551;DHT22;7362;50.956;4.184;2022-08-03T12:21:50;42.80;55.40
14551;DHT22;7362;50.956;4.184;2022-08-03T12:24:16;41.50;55.80
14551;DHT22;7362;50.956;4.184;2022-08-03T12:26:47;41.00;56.20
14551;DHT22;7362;50.956;4.184;2022-08-03T12:29:20;41.40;56.10
14551;DHT22;7362;50.956;4.184;2022-08-03T12:31:47;41.20;57.20
14551;DHT22;7362;50.956;4.184;2022-08-03T12:34:13;41.80;56.80
14551;DHT22;7362;50.956;4.184;2022-08-03T12:36:49;42.00;54.50
14551;DHT22;7362;50.956;4.184;2022-08-03T12:39:15;41.20;55.80
14551;DHT22;7362;50.956;4.184;2022-08-03T12:41:41;40.50;56.10
14551;DHT22;7362;50.956;4.184;2022-08-03T12:44:11;40.00;56.70
14551;DHT22;7362;50.956;4.184;2022-08-03T12:46:38;39.90;57.30
14551;DHT22;7362;50.956;4.184;2022-08-03T12:49:12;40.90;56.10
14551;DHT22;7362;50.956;4.184;2022-08-03T12:54:20;41.60;56.40
14551;DHT22;7362;50.956;4.184;2022-08-03T12:57:11;41.70;55.50
14551;DHT22;7362;50.956;4.184;2022-08-03T12:59:39;40.70;56.00
14551;DHT22;7362;50.956;4.184;2022-08-03T13:02:15;40.50;56.90
14551;DHT22;7362;50.956;4.184;2022-08-03T13:04:42;39.80;57.00
14551;DHT22;7362;50.956;4.184;2022-08-03T13:07:09;38.10;58.90
14551;DHT22;7362;50.956;4.184;2022-08-03T13:09:43;37.10;61.30
14551;DHT22;7362;50.956;4.184;2022-08-03T13:12:13;37.00;62.20
14551;DHT22;7362;50.956;4.184;2022-08-03T13:14:40;37.20;61.00
14551;DHT22;7362;50.956;4.184;2022-08-03T13:17:06;36.80;61.40
14551;DHT22;7362;50.956;4.184;2022-08-03T13:19:36;37.00;60.10
14551;DHT22;7362;50.956;4.184;2022-08-03T13:22:31;37.50;61.00
14551;DHT22;7362;50.956;4.184;2022-08-03T13:25:00;37.30;60.40
14551;DHT22;7362;50.956;4.184;2022-08-03T13:27:28;37.30;60.40
14551;DHT22;7362;50.956;4.184;2022-08-03T13:29:54;37.70;59.70
14551;DHT22;7362;50.956;4.184;2022-08-03T13:32:21;38.20;59.50
14551;DHT22;7362;50.956;4.184;2022-08-03T13:34:49;39.50;58.00
14551;DHT22;7362;50.956;4.184;2022-08-03T13:37:14;39.30;58.90
14551;DHT22;7362;50.956;4.184;2022-08-03T13:39:41;39.20;58.20
14551;DHT22;7362;50.956;4.184;2022-08-03T13:42:07;38.00;58.80
14551;DHT22;7362;50.956;4.184;2022-08-03T13:44:33;38.10;59.90
14551;DHT22;7362;50.956;4.184;2022-08-03T13:47:05;38.20;59.70
14551;DHT22;7362;50.956;4.184;2022-08-03T13:49:31;38.00;59.60
14551;DHT22;7362;50.956;4.184;2022-08-03T13:51:57;37.40;60.70
14551;DHT22;7362;50.956;4.184;2022-08-03T13:54:23;38.10;60.40
14551;DHT22;7362;50.956;4.184;2022-08-03T13:56:49;37.70;59.70
14551;DHT22;7362;50.956;4.184;2022-08-03T13:59:21;36.70;61.30
14551;DHT22;7362;50.956;4.184;2022-08-03T14:01:48;36.00;62.60
14551;DHT22;7362;50.956;4.184;2022-08-03T14:04:18;35.50;63.40
14551;DHT22;7362;50.956;4.184;2022-08-03T14:06:45;35.90;64.80
14551;DHT22;7362;50.956;4.184;2022-08-03T14:09:12;36.10;63.10
14551;DHT22;7362;50.956;4.184;2022-08-03T14:11:40;35.90;64.30
14551;DHT22;7362;50.956;4.184;2022-08-03T14:14:07;35.50;63.40
14551;DHT22;7362;50.956;4.184;2022-08-03T14:16:34;35.10;64.00
14551;DHT22;7362;50.956;4.184;2022-08-03T14:18:59;34.40;64.90
14551;DHT22;7362;50.956;4.184;2022-08-03T14:21:25;34.20;66.60
14551;DHT22;7362;50.956;4.184;2022-08-03T14:23:51;34.40;66.40
14551;DHT22;7362;50.956;4.184;2022-08-03T14:26:17;34.40;65.50
14551;DHT22;7362;50.956;4.184;2022-08-03T14:28:45;34.40;66.40
14551;DHT22;7362;50.956;4.184;2022-08-03T14:31:13;34.50;67.50
14551;DHT22;7362;50.956;4.184;2022-08-03T14:33:40;34.10;66.90
14551;DHT22;7362;50.956;4.184;2022-08-03T14:36:11;34.00;67.70
14551;DHT22;7362;50.956;4.184;2022-08-03T14:38:39;34.10;68.00
14551;DHT22;7362;50.956;4.184;2022-08-03T14:41:05;34.00;67.00
14551;DHT22;7362;50.956;4.184;2022-08-03T14:43:31;33.90;68.20
14551;DHT22;7362;50.956;4.184;2022-08-03T14:45:56;33.80;68.10
14551;DHT22;7362;50.956;4.184;2022-08-03T14:48:23;33.80;68.00
14551;DHT22;7362;50.956;4.184;2022-08-03T14:50:49;33.70;68.30
14551;DHT22;7362;50.956;4.184;2022-08-03T14:56:39;33.70;68.80
14551;DHT22;7362;50.956;4.184;2022-08-03T14:59:04;33.70;69.30
14551;DHT22;7362;50.956;4.184;2022-08-03T15:01:30;33.40;69.70
14551;DHT22;7362;50.956;4.184;2022-08-03T15:03:56;33.30;69.60
14551;DHT22;7362;50.956;4.184;2022-08-03T15:06:22;33.40;69.70
14551;DHT22;7362;50.956;4.184;2022-08-03T15:08:48;33.40;69.00
14551;DHT22;7362;50.956;4.184;2022-08-03T15:11:15;33.30;68.50
14551;DHT22;7362;50.956;4.184;2022-08-03T15:13:40;33.30;68.60
14551;DHT22;7362;50.956;4.184;2022-08-03T15:16:06;33.30;69.00
14551;DHT22;7362;50.956;4.184;2022-08-03T15:18:34;33.40;69.70
14551;DHT22;7362;50.956;4.184;2022-08-03T15:21:00;33.40;69.10
14551;DHT22;7362;50.956;4.184;2022-08-03T15:23:26;33.60;69.60
14551;DHT22;7362;50.956;4.184;2022-08-03T15:25:52;33.70;68.70
14551;DHT22;7362;50.956;4.184;2022-08-03T15:28:18;33.60;70.00
14551;DHT22;7362;50.956;4.184;2022-08-03T15:30:45;33.50;71.10
14551;DHT22;7362;50.956;4.184;2022-08-03T15:33:12;33.40;69.70
14551;DHT22;7362;50.956;4.184;2022-08-03T15:35:39;33.40;70.50
14551;DHT22;7362;50.956;4.184;2022-08-03T15:38:06;33.40;68.20
14551;DHT22;7362;50.956;4.184;2022-08-03T15:40:32;33.40;70.80
14551;DHT22;7362;50.956;4.184;2022-08-03T15:42:59;33.10;70.60
14551;DHT22;7362;50.956;4.184;2022-08-03T15:45:26;33.00;71.10
14551;DHT22;7362;50.956;4.184;2022-08-03T15:47:53;33.00;72.90
14551;DHT22;7362;50.956;4.184;2022-08-03T15:50:18;33.00;72.20
14551;DHT22;7362;50.956;4.184;2022-08-03T15:52:44;33.20;70.70
14551;DHT22;7362;50.956;4.184;2022-08-03T15:55:12;33.10;71.80
14551;DHT22;7362;50.956;4.184;2022-08-03T15:57:38;33.20;70.40
14551;DHT22;7362;50.956;4.184;2022-08-03T16:00:05;33.30;70.70
14551;DHT22;7362;50.956;4.184;2022-08-03T16:02:34;33.30;70.70
14551;DHT22;7362;50.956;4.184;2022-08-03T16:05:00;33.30;70.90
14551;DHT22;7362;50.956;4.184;2022-08-03T16:07:26;33.40;71.70
14551;DHT22;7362;50.956;4.184;2022-08-03T16:10:12;33.30;70.40
14551;DHT22;7362;50.956;4.184;2022-08-03T16:12:38;33.30;70.80
14551;DHT22;7362;50.956;4.184;2022-08-03T16:15:06;33.40;71.90
14551;DHT22;7362;50.956;4.184;2022-08-03T16:17:32;33.40;72.40
14551;DHT22;7362;50.956;4.184;2022-08-03T16:19:58;33.40;73.40
14551;DHT22;7362;50.956;4.184;2022-08-03T16:22:24;33.40;71.00
14551;DHT22;7362;50.956;4.184;2022-08-03T16:24:52;33.30;71.40
14551;DHT22;7362;50.956;4.184;2022-08-03T16:27:21;33.30;70.70
14551;DHT22;7362;50.956;4.184;2022-08-03T16:29:47;33.30;73.20
14551;DHT22;7362;50.956;4.184;2022-08-03T16:32:14;33.20;72.10
14551;DHT22;7362;50.956;4.184;2022-08-03T16:34:41;33.30;70.90
14551;DHT22;7362;50.956;4.184;2022-08-03T16:37:10;33.30;73.00
14551;DHT22;7362;50.956;4.184;2022-08-03T16:39:38;33.20;72.40
14551;DHT22;7362;50.956;4.184;2022-08-03T16:42:18;33.30;70.70
14551;DHT22;7362;50.956;4.184;2022-08-03T16:44:43;33.30;70.60
14551;DHT22;7362;50.956;4.184;2022-08-03T16:47:09;33.30;71.80